Weather at Hirta Heliport

Public forecast

Using degrees Celsius for public forecast. Weather courtesy of forecast.io.

Closest aviation weather report (METAR) to Hirta Heliport

Closest report is Benbecula Airport, 43.6 nm (80.7 km) ESE.

2024/05/30 02:50 (retrieved 24 minutes ago)

EGPL 300250Z AUTO 35017KT 9999 BKN002/// BKN011/// 11/10 Q1013

Closest aviation forecast (TAF) to Hirta Heliport

Forecast is more than 6 hours old.

Closest forecast is RAF Waddington, 390.3 nm (722.8 km) SE.

2024/05/29 18:18 (retrieved 9 hours ago)

TAF TAF EGXW 291703Z 2918/3012 CNL